createdAt,value
2023-05-08T00:00:28.186Z,6.40
2023-05-08T00:01:00.823Z,7.20
2023-05-08T00:01:33.516Z,7.10
2023-05-08T00:02:06.170Z,6.70
2023-05-08T00:02:38.937Z,6.50
2023-05-08T00:03:11.773Z,7.00
2023-05-08T00:03:44.586Z,6.60
2023-05-08T00:04:17.429Z,7.10
2023-05-08T00:04:50.170Z,6.30
2023-05-08T00:05:22.890Z,7.30
2023-05-08T00:05:55.554Z,6.20
2023-05-08T00:06:28.223Z,7.20
2023-05-08T00:07:00.885Z,6.10
2023-05-08T00:07:33.546Z,7.40
2023-05-08T00:08:04.629Z,7.20
2023-05-08T00:08:37.315Z,6.60
2023-05-08T00:09:09.963Z,7.50
2023-05-08T00:09:42.648Z,7.50
2023-05-08T00:10:15.594Z,6.40
2023-05-08T00:10:41.911Z,7.40
2023-05-08T00:11:14.619Z,7.00
2023-05-08T00:11:47.292Z,5.10
2023-05-08T00:12:19.968Z,5.80
2023-05-08T00:12:52.698Z,6.50
2023-05-08T00:13:25.442Z,6.00
2023-05-08T00:13:58.160Z,6.90
2023-05-08T00:14:30.837Z,6.00
2023-05-08T00:15:03.535Z,6.30
2023-05-08T00:15:36.189Z,6.70
2023-05-08T00:16:08.895Z,6.00
2023-05-08T00:16:41.595Z,7.40
2023-05-08T00:17:14.256Z,6.70
2023-05-08T00:17:46.951Z,6.10
2023-05-08T00:18:19.612Z,6.00
2023-05-08T00:18:52.258Z,6.00
2023-05-08T00:19:24.937Z,6.70
2023-05-08T00:19:57.661Z,6.20
2023-05-08T00:20:30.338Z,6.60
2023-05-08T00:21:03.007Z,5.60
2023-05-08T00:21:35.699Z,5.80
2023-05-08T00:22:08.374Z,6.00
2023-05-08T00:22:41.073Z,7.30
2023-05-08T00:23:13.727Z,7.60
2023-05-08T00:23:46.397Z,6.50
2023-05-08T00:24:19.068Z,7.10
2023-05-08T00:24:51.757Z,6.60
2023-05-08T00:25:24.434Z,6.40
2023-05-08T00:25:57.102Z,6.10
2023-05-08T00:26:29.763Z,5.80
2023-05-08T00:27:02.421Z,6.50
2023-05-08T00:27:35.152Z,6.70
2023-05-08T00:28:07.818Z,6.90
2023-05-08T00:28:40.501Z,7.10
2023-05-08T00:29:13.164Z,7.30
2023-05-08T00:29:45.830Z,7.50
2023-05-08T00:30:18.530Z,6.80
2023-05-08T00:30:51.193Z,6.50
2023-05-08T00:31:23.868Z,8.70
2023-05-08T00:31:56.678Z,7.20
2023-05-08T00:32:29.457Z,7.20
2023-05-08T00:33:02.254Z,7.70
2023-05-08T00:33:34.935Z,7.50
2023-05-08T00:34:07.621Z,7.10
2023-05-08T00:34:40.263Z,7.60
2023-05-08T00:35:12.967Z,8.20
2023-05-08T00:35:45.627Z,6.80
2023-05-08T00:36:18.304Z,7.60
2023-05-08T00:36:50.956Z,6.80
2023-05-08T00:37:23.627Z,6.60
2023-05-08T00:37:56.307Z,8.00
2023-05-08T00:38:29.000Z,6.10
2023-05-08T00:39:01.651Z,6.60
2023-05-08T00:39:34.316Z,6.90
2023-05-08T00:40:06.971Z,6.80
2023-05-08T00:40:39.671Z,6.80
2023-05-08T00:41:12.332Z,6.50
2023-05-08T00:41:45.018Z,6.10
2023-05-08T00:42:17.688Z,6.90
2023-05-08T00:42:50.351Z,6.60
2023-05-08T00:43:23.024Z,7.70
2023-05-08T00:43:55.691Z,6.70
2023-05-08T00:44:28.362Z,7.40
2023-05-08T00:45:01.028Z,6.70
2023-05-08T00:45:33.746Z,6.70
2023-05-08T00:46:06.408Z,6.50
2023-05-08T00:46:39.183Z,6.30
2023-05-08T00:47:11.946Z,5.90
2023-05-08T00:47:44.638Z,7.20
2023-05-08T00:48:17.295Z,6.50
2023-05-08T00:48:49.964Z,6.40
2023-05-08T00:49:22.638Z,5.90
2023-05-08T00:49:55.320Z,5.90
2023-05-08T00:50:27.987Z,6.30
2023-05-08T00:51:00.652Z,6.60
2023-05-08T00:51:33.327Z,5.80
2023-05-08T00:52:05.990Z,5.90
2023-05-08T00:52:38.657Z,6.10
2023-05-08T00:53:11.353Z,6.70
2023-05-08T00:53:44.000Z,6.30
2023-05-08T00:54:16.660Z,6.50
2023-05-08T00:54:49.336Z,6.00
2023-05-08T00:55:22.025Z,6.10
2023-05-08T00:55:54.681Z,6.30
2023-05-08T00:56:27.369Z,6.30
2023-05-08T00:57:00.060Z,6.40
2023-05-08T00:57:32.706Z,5.60
2023-05-08T00:58:05.391Z,7.80
2023-05-08T00:58:38.059Z,6.80
2023-05-08T00:59:10.721Z,7.40
2023-05-08T00:59:43.442Z,6.10
2023-05-08T01:00:16.109Z,6.10
2023-05-08T01:00:48.870Z,5.60
2023-05-08T01:01:21.549Z,6.60
2023-05-08T01:01:54.343Z,7.30
2023-05-08T01:02:27.129Z,6.90
2023-05-08T01:02:59.846Z,6.00
2023-05-08T01:03:32.628Z,7.20
2023-05-08T01:04:05.342Z,5.80
2023-05-08T01:04:38.022Z,5.90
2023-05-08T01:05:10.693Z,6.30
2023-05-08T01:05:43.368Z,7.80
2023-05-08T01:06:16.030Z,5.70
2023-05-08T01:06:48.696Z,6.20
2023-05-08T01:07:21.375Z,6.60
2023-05-08T01:07:54.054Z,6.40
2023-05-08T01:08:26.700Z,5.70
2023-05-08T01:08:59.375Z,5.80
2023-05-08T01:09:32.042Z,6.80
2023-05-08T01:10:04.696Z,6.70
2023-05-08T01:10:35.794Z,6.20
2023-05-08T01:11:08.493Z,6.50
2023-05-08T01:11:41.136Z,6.30
2023-05-08T01:12:13.813Z,6.90
2023-05-08T01:12:46.497Z,6.00
2023-05-08T01:13:19.259Z,6.60
2023-05-08T01:13:52.019Z,7.50
2023-05-08T01:14:24.711Z,5.10
2023-05-08T01:14:57.389Z,6.50
2023-05-08T01:15:30.039Z,7.30
2023-05-08T01:16:02.771Z,5.40
2023-05-08T01:16:35.509Z,7.70
2023-05-08T01:17:08.162Z,7.00
2023-05-08T01:17:40.838Z,5.40
2023-05-08T01:18:13.541Z,6.90
2023-05-08T01:18:46.236Z,6.40
2023-05-08T01:19:18.924Z,6.90
2023-05-08T01:19:51.592Z,7.50
2023-05-08T01:20:24.275Z,6.70
2023-05-08T01:20:56.938Z,5.30
2023-05-08T01:21:29.625Z,5.80
2023-05-08T01:22:02.302Z,8.30
2023-05-08T01:22:34.963Z,7.00
2023-05-08T01:23:07.676Z,6.60
2023-05-08T01:23:40.326Z,6.50
2023-05-08T01:24:12.989Z,6.10
2023-05-08T01:24:45.669Z,5.80
2023-05-08T01:25:18.351Z,5.60
2023-05-08T01:25:51.046Z,6.50
2023-05-08T01:26:23.718Z,6.10
2023-05-08T01:26:56.368Z,7.00
2023-05-08T01:27:29.071Z,6.60
2023-05-08T01:28:01.743Z,5.40
2023-05-08T01:28:34.410Z,6.40
2023-05-08T01:29:07.078Z,6.30
2023-05-08T01:29:39.740Z,6.70
2023-05-08T01:30:12.627Z,6.10
2023-05-08T01:30:38.914Z,6.50
2023-05-08T01:31:11.584Z,5.80
2023-05-08T01:31:44.230Z,5.60
2023-05-08T01:32:16.874Z,7.90
2023-05-08T01:32:49.578Z,6.90
2023-05-08T01:33:22.363Z,6.60
2023-05-08T01:33:55.080Z,5.80
2023-05-08T01:34:27.747Z,6.00
2023-05-08T01:35:00.430Z,6.70
2023-05-08T01:35:33.118Z,6.40
2023-05-08T01:36:05.782Z,6.10
2023-05-08T01:36:38.472Z,5.10
2023-05-08T01:37:11.118Z,5.80
2023-05-08T01:37:43.843Z,6.30
2023-05-08T01:38:16.507Z,7.60
2023-05-08T01:38:49.188Z,6.80
2023-05-08T01:39:21.857Z,6.80
2023-05-08T01:39:54.513Z,5.70
2023-05-08T01:40:27.215Z,6.00
2023-05-08T01:40:59.877Z,5.80
2023-05-08T01:41:32.546Z,6.20
2023-05-08T01:42:05.215Z,5.90
2023-05-08T01:42:37.881Z,5.90
2023-05-08T01:43:10.548Z,5.80
2023-05-08T01:43:43.235Z,5.70
2023-05-08T01:44:15.913Z,6.00
2023-05-08T01:44:48.585Z,6.90
2023-05-08T01:45:21.269Z,4.80
2023-05-08T01:45:53.938Z,6.70
2023-05-08T01:46:26.712Z,5.70
2023-05-08T01:46:59.522Z,8.40
2023-05-08T01:47:32.215Z,6.50
2023-05-08T01:48:04.907Z,5.80
2023-05-08T01:48:37.642Z,7.20
2023-05-08T01:49:10.295Z,5.90
2023-05-08T01:49:42.963Z,4.90
2023-05-08T01:50:15.897Z,5.90
2023-05-08T01:50:42.224Z,5.10
2023-05-08T01:51:14.918Z,6.50
2023-05-08T01:51:47.578Z,5.40
2023-05-08T01:52:20.247Z,6.40
2023-05-08T01:52:52.902Z,5.60
2023-05-08T01:53:25.592Z,6.80
2023-05-08T01:53:58.249Z,5.70
2023-05-08T01:54:30.889Z,6.10
2023-05-08T01:55:03.555Z,6.00
2023-05-08T01:55:36.255Z,6.10
2023-05-08T01:56:08.919Z,6.70
2023-05-08T01:56:41.585Z,6.80
2023-05-08T01:57:14.285Z,7.70
2023-05-08T01:57:46.929Z,5.90
2023-05-08T01:58:19.603Z,6.50
2023-05-08T01:58:52.267Z,6.10
2023-05-08T01:59:24.931Z,5.90
2023-05-08T01:59:57.597Z,5.20
2023-05-08T02:00:30.315Z,5.40
2023-05-08T02:01:03.127Z,6.40
2023-05-08T02:01:35.912Z,5.00
2023-05-08T02:02:08.607Z,6.40
2023-05-08T02:02:41.429Z,7.60
2023-05-08T02:03:14.178Z,7.00
2023-05-08T02:03:46.955Z,6.10
2023-05-08T02:04:19.678Z,6.10
2023-05-08T02:04:52.342Z,6.00
2023-05-08T02:05:25.086Z,6.90
2023-05-08T02:05:57.756Z,5.50
2023-05-08T02:06:30.412Z,6.10
2023-05-08T02:07:03.087Z,5.90
2023-05-08T02:07:35.766Z,6.70
2023-05-08T02:08:08.500Z,5.30
2023-05-08T02:08:41.171Z,7.30
2023-05-08T02:09:13.840Z,6.10
2023-05-08T02:09:46.506Z,6.40
2023-05-08T02:10:19.192Z,5.00
2023-05-08T02:10:51.876Z,8.00
2023-05-08T02:11:24.567Z,6.90
2023-05-08T02:11:57.227Z,6.10
2023-05-08T02:12:29.908Z,7.00
2023-05-08T02:13:02.603Z,6.70
2023-05-08T02:13:35.263Z,7.70
2023-05-08T02:14:07.952Z,6.40
2023-05-08T02:14:40.630Z,6.30
2023-05-08T02:15:13.319Z,7.50
2023-05-08T02:15:46.014Z,6.70
2023-05-08T02:16:18.722Z,6.00
2023-05-08T02:16:51.496Z,6.80
2023-05-08T02:17:24.199Z,6.10
2023-05-08T02:17:56.924Z,5.90
2023-05-08T02:18:29.606Z,5.80
2023-05-08T02:19:02.272Z,5.60
2023-05-08T02:19:34.934Z,5.80
2023-05-08T02:20:07.585Z,7.00
2023-05-08T02:20:40.268Z,6.80
2023-05-08T02:21:12.932Z,7.10
2023-05-08T02:21:45.612Z,7.20
2023-05-08T02:22:18.280Z,6.70
2023-05-08T02:22:50.963Z,6.60
2023-05-08T02:23:23.631Z,6.40
2023-05-08T02:23:56.288Z,7.80
2023-05-08T02:24:28.936Z,5.60
2023-05-08T02:25:01.602Z,6.10
2023-05-08T02:25:34.302Z,6.40
2023-05-08T02:26:06.989Z,6.40
2023-05-08T02:26:39.645Z,6.30
2023-05-08T02:27:12.306Z,6.20
2023-05-08T02:27:44.988Z,5.70
2023-05-08T02:28:17.651Z,7.20
2023-05-08T02:28:50.315Z,7.90
2023-05-08T02:29:22.997Z,6.40
2023-05-08T02:29:55.659Z,7.10
2023-05-08T02:30:28.339Z,7.90
2023-05-08T02:31:01.019Z,6.40
2023-05-08T02:31:33.704Z,6.40
2023-05-08T02:32:06.517Z,6.00
2023-05-08T02:32:39.250Z,5.90
2023-05-08T02:33:12.008Z,6.50
2023-05-08T02:33:44.697Z,6.90
2023-05-08T02:34:17.356Z,6.60
2023-05-08T02:35:01.933Z,7.20
2023-05-08T02:35:22.136Z,6.60
2023-05-08T02:35:48.316Z,7.60
2023-05-08T02:36:20.994Z,7.00
2023-05-08T02:36:53.677Z,6.10
2023-05-08T02:37:26.335Z,5.60
2023-05-08T02:37:59.001Z,7.60
2023-05-08T02:38:31.655Z,8.40
2023-05-08T02:39:04.321Z,7.20
2023-05-08T02:39:35.417Z,6.80
2023-05-08T02:40:08.090Z,6.40
2023-05-08T02:40:40.797Z,6.70
2023-05-08T02:41:13.479Z,5.40
2023-05-08T02:41:46.123Z,6.90
2023-05-08T02:42:18.783Z,6.70
2023-05-08T02:42:51.461Z,7.50
2023-05-08T02:43:24.135Z,6.30
2023-05-08T02:43:56.783Z,5.80
2023-05-08T02:44:29.467Z,6.80
2023-05-08T02:45:02.145Z,6.50
2023-05-08T02:45:34.806Z,6.40
2023-05-08T02:46:07.491Z,7.60
2023-05-08T02:46:40.186Z,8.10
2023-05-08T02:47:12.934Z,6.70
2023-05-08T02:47:45.579Z,7.60
2023-05-08T02:48:18.250Z,5.70
2023-05-08T02:48:50.904Z,6.30
2023-05-08T02:49:23.568Z,6.80
2023-05-08T02:49:56.255Z,6.60
2023-05-08T02:50:28.938Z,8.40
2023-05-08T02:51:01.621Z,6.30
2023-05-08T02:51:34.294Z,7.10
2023-05-08T02:52:06.939Z,5.40
2023-05-08T02:52:39.603Z,6.10
2023-05-08T02:53:12.266Z,6.30
2023-05-08T02:53:44.934Z,6.70
2023-05-08T02:54:17.602Z,7.50
2023-05-08T02:54:50.289Z,7.60
2023-05-08T02:55:22.954Z,7.50
2023-05-08T02:55:55.628Z,6.90
2023-05-08T02:56:28.288Z,8.90
2023-05-08T02:57:00.956Z,7.20
2023-05-08T02:57:33.625Z,6.70
2023-05-08T02:58:06.306Z,6.20
2023-05-08T02:58:38.955Z,7.20
2023-05-08T02:59:11.628Z,7.80
2023-05-08T02:59:44.366Z,7.10
2023-05-08T03:00:17.054Z,6.60
2023-05-08T03:00:49.725Z,6.30
2023-05-08T03:01:22.436Z,5.90
2023-05-08T03:01:55.130Z,9.30
2023-05-08T03:02:28.014Z,7.70
2023-05-08T03:03:00.790Z,6.80
2023-05-08T03:03:33.612Z,8.20
2023-05-08T03:04:06.324Z,6.20
2023-05-08T03:04:39.013Z,6.60
2023-05-08T03:05:11.691Z,6.70
2023-05-08T03:05:44.364Z,6.00
2023-05-08T03:06:11.519Z,6.60
2023-05-08T03:06:45.174Z,7.00
2023-05-08T03:07:11.371Z,6.80
2023-05-08T03:07:44.079Z,6.70
2023-05-08T03:08:16.753Z,9.30
2023-05-08T03:08:49.405Z,6.50
2023-05-08T03:09:22.066Z,6.00
2023-05-08T03:09:54.753Z,6.50
2023-05-08T03:10:27.423Z,7.50
2023-05-08T03:11:00.111Z,7.20
2023-05-08T03:11:32.749Z,6.60
2023-05-08T03:12:05.476Z,8.00
2023-05-08T03:12:39.914Z,7.20
2023-05-08T03:13:06.813Z,7.10
2023-05-08T03:13:39.474Z,6.10
2023-05-08T03:14:12.159Z,8.50
2023-05-08T03:14:44.804Z,6.20
2023-05-08T03:15:17.492Z,7.20
2023-05-08T03:15:50.190Z,7.40
2023-05-08T03:16:22.901Z,7.10
2023-05-08T03:16:55.628Z,7.10
2023-05-08T03:17:28.382Z,6.80
2023-05-08T03:18:01.095Z,6.60
2023-05-08T03:18:33.748Z,6.40
2023-05-08T03:19:06.411Z,7.30
2023-05-08T03:19:39.100Z,6.30
2023-05-08T03:20:11.999Z,7.40
2023-05-08T03:20:38.296Z,7.50
2023-05-08T03:21:10.969Z,6.80
2023-05-08T03:21:43.857Z,7.30
2023-05-08T03:22:16.504Z,6.90
2023-05-08T03:22:49.175Z,8.10
2023-05-08T03:23:21.836Z,6.80
2023-05-08T03:23:54.519Z,8.20
2023-05-08T03:24:27.219Z,7.10
2023-05-08T03:24:59.901Z,6.90
2023-05-08T03:25:32.564Z,7.60
2023-05-08T03:26:05.221Z,7.40
2023-05-08T03:26:37.902Z,7.00
2023-05-08T03:27:10.557Z,7.10
2023-05-08T03:27:43.233Z,6.80
2023-05-08T03:28:15.905Z,7.10
2023-05-08T03:28:48.593Z,7.10
2023-05-08T03:29:21.234Z,6.00
2023-05-08T03:29:53.904Z,7.10
2023-05-08T03:30:26.609Z,7.90
2023-05-08T03:30:59.268Z,7.70
2023-05-08T03:31:31.978Z,6.90
2023-05-08T03:32:04.776Z,7.40
2023-05-08T03:32:37.479Z,7.80
2023-05-08T03:33:10.157Z,7.00
2023-05-08T03:33:42.798Z,8.20
2023-05-08T03:34:15.459Z,6.20
2023-05-08T03:34:48.229Z,7.10
2023-05-08T03:35:20.927Z,7.40
2023-05-08T03:35:53.582Z,7.50
2023-05-08T03:36:26.251Z,6.40
2023-05-08T03:36:58.914Z,6.60
2023-05-08T03:37:31.581Z,6.90
2023-05-08T03:38:04.249Z,6.90
2023-05-08T03:38:36.958Z,7.00
2023-05-08T03:39:09.607Z,7.20
2023-05-08T03:39:42.267Z,7.30
2023-05-08T03:40:15.043Z,7.80
2023-05-08T03:40:47.736Z,6.40
2023-05-08T03:41:20.395Z,6.40
2023-05-08T03:41:53.092Z,7.00
2023-05-08T03:42:25.779Z,7.30
2023-05-08T03:42:58.414Z,7.10
2023-05-08T03:43:31.100Z,7.90
2023-05-08T03:44:03.778Z,6.80
2023-05-08T03:44:36.438Z,6.70
2023-05-08T03:45:09.119Z,7.80
2023-05-08T03:45:41.837Z,8.90
2023-05-08T03:46:14.526Z,7.20
2023-05-08T03:46:47.209Z,6.60
2023-05-08T03:47:19.855Z,6.60
2023-05-08T03:47:52.558Z,7.70
2023-05-08T03:48:25.256Z,7.20
2023-05-08T03:48:57.906Z,8.30
2023-05-08T03:49:30.597Z,6.90
2023-05-08T03:50:03.271Z,7.50
2023-05-08T03:50:35.941Z,7.30
2023-05-08T03:51:08.606Z,9.70
2023-05-08T03:51:39.698Z,7.30
2023-05-08T03:52:12.360Z,8.20
2023-05-08T03:52:45.043Z,8.10
2023-05-08T03:53:17.731Z,7.30
2023-05-08T03:53:50.389Z,7.50
2023-05-08T03:54:23.057Z,8.20
2023-05-08T03:54:55.722Z,7.60
2023-05-08T03:55:28.414Z,7.20
2023-05-08T03:56:01.077Z,9.00
2023-05-08T03:56:33.862Z,7.50
2023-05-08T03:57:06.511Z,7.70
2023-05-08T03:57:39.175Z,7.90
2023-05-08T03:58:11.848Z,7.80
2023-05-08T03:58:42.949Z,8.60
2023-05-08T03:59:15.613Z,8.40
2023-05-08T03:59:48.307Z,7.00
2023-05-08T04:00:20.979Z,7.90
2023-05-08T04:00:53.675Z,9.60
2023-05-08T04:01:26.333Z,7.40
2023-05-08T04:01:59.090Z,8.70
2023-05-08T04:02:31.834Z,8.20
2023-05-08T04:03:04.637Z,8.30
2023-05-08T04:03:37.396Z,9.00
2023-05-08T04:04:10.169Z,7.00
2023-05-08T04:04:42.816Z,8.90
2023-05-08T04:05:15.526Z,7.30
2023-05-08T04:05:48.174Z,8.90
2023-05-08T04:06:20.873Z,7.60
2023-05-08T04:06:53.564Z,8.40
2023-05-08T04:07:26.203Z,7.60
2023-05-08T04:07:58.867Z,8.10
2023-05-08T04:08:31.530Z,9.70
2023-05-08T04:09:04.196Z,9.90
2023-05-08T04:09:36.871Z,8.40
2023-05-08T04:10:09.610Z,8.60
2023-05-08T04:10:42.375Z,7.70
2023-05-08T04:11:15.024Z,7.20
2023-05-08T04:11:47.688Z,6.60
2023-05-08T04:12:20.355Z,8.10
2023-05-08T04:12:53.068Z,8.80
2023-05-08T04:13:25.909Z,8.40
2023-05-08T04:13:58.638Z,7.90
2023-05-08T04:14:31.360Z,8.30
2023-05-08T04:15:04.013Z,7.70
2023-05-08T04:15:36.696Z,8.10
2023-05-08T04:16:09.367Z,7.90
2023-05-08T04:16:42.153Z,9.10
2023-05-08T04:17:14.871Z,8.50
2023-05-08T04:17:47.554Z,9.10
2023-05-08T04:18:20.229Z,7.50
2023-05-08T04:18:51.352Z,7.90
2023-05-08T04:19:23.985Z,8.30
2023-05-08T04:19:56.680Z,8.60
2023-05-08T04:20:29.365Z,9.10
2023-05-08T04:21:02.014Z,7.70
2023-05-08T04:21:34.693Z,7.60
2023-05-08T04:22:07.371Z,8.90
2023-05-08T04:22:40.044Z,8.90
2023-05-08T04:23:12.743Z,7.60
2023-05-08T04:23:45.408Z,8.00
2023-05-08T04:24:18.068Z,7.70
2023-05-08T04:24:50.741Z,7.10
2023-05-08T04:25:23.426Z,6.90
2023-05-08T04:25:56.098Z,8.80
2023-05-08T04:26:28.794Z,9.10
2023-05-08T04:27:01.444Z,8.40
2023-05-08T04:27:34.111Z,8.40
2023-05-08T04:28:06.774Z,9.40
2023-05-08T04:28:39.447Z,9.00
2023-05-08T04:29:12.126Z,8.50
2023-05-08T04:29:44.815Z,7.90
2023-05-08T04:30:17.520Z,8.50
2023-05-08T04:30:50.174Z,7.90
2023-05-08T04:31:22.874Z,8.30
2023-05-08T04:31:55.590Z,9.10
2023-05-08T04:32:28.273Z,9.00
2023-05-08T04:33:00.967Z,8.10
2023-05-08T04:33:33.780Z,9.00
2023-05-08T04:34:06.455Z,8.50
2023-05-08T04:34:39.100Z,8.50
2023-05-08T04:35:12.041Z,7.80
2023-05-08T04:35:38.391Z,8.20
2023-05-08T04:36:11.062Z,7.50
2023-05-08T04:36:43.769Z,8.10
2023-05-08T04:37:16.432Z,8.80
2023-05-08T04:37:49.133Z,9.70
2023-05-08T04:38:21.770Z,7.80
2023-05-08T04:38:52.872Z,7.20
2023-05-08T04:39:25.557Z,8.40
2023-05-08T04:39:58.215Z,8.50
2023-05-08T04:40:30.935Z,9.90
2023-05-08T04:41:03.629Z,8.40
2023-05-08T04:41:36.319Z,7.50
2023-05-08T04:42:09.027Z,8.60
2023-05-08T04:42:41.675Z,8.70
2023-05-08T04:43:14.341Z,9.30
2023-05-08T04:43:47.004Z,8.10
2023-05-08T04:44:19.676Z,10.00
2023-05-08T04:44:52.340Z,7.90
2023-05-08T04:45:25.051Z,9.00
2023-05-08T04:45:57.750Z,8.20
2023-05-08T04:46:30.490Z,9.80
2023-05-08T04:47:03.166Z,8.10
2023-05-08T04:47:35.898Z,9.60
2023-05-08T04:48:08.603Z,7.70
2023-05-08T04:48:41.297Z,8.80
2023-05-08T04:49:13.973Z,8.50
2023-05-08T04:49:46.617Z,8.90
2023-05-08T04:50:19.303Z,9.10
2023-05-08T04:50:51.970Z,8.70
2023-05-08T04:51:24.638Z,7.30
2023-05-08T04:51:57.321Z,11.00
2023-05-08T04:52:29.980Z,8.60
2023-05-08T04:53:02.635Z,8.30
2023-05-08T04:53:35.298Z,9.50
2023-05-08T04:54:07.974Z,8.40
2023-05-08T04:54:40.637Z,7.40
2023-05-08T04:55:13.567Z,8.40
2023-05-08T04:55:39.942Z,7.80
2023-05-08T04:56:12.606Z,8.50
2023-05-08T04:56:45.272Z,7.30
2023-05-08T04:57:17.947Z,9.40
2023-05-08T04:57:50.629Z,8.60
2023-05-08T04:58:23.346Z,8.40
2023-05-08T04:58:56.052Z,9.30
2023-05-08T04:59:28.717Z,7.80
2023-05-08T05:00:01.413Z,8.90
2023-05-08T05:00:34.102Z,7.80
2023-05-08T05:01:06.805Z,7.50
2023-05-08T05:01:39.541Z,8.80
2023-05-08T05:02:12.202Z,9.10
2023-05-08T05:02:44.928Z,7.60
2023-05-08T05:03:17.674Z,8.70
2023-05-08T05:03:50.376Z,9.60
2023-05-08T05:04:23.051Z,8.10
2023-05-08T05:04:55.698Z,8.80
2023-05-08T05:05:28.390Z,8.00
2023-05-08T05:06:01.072Z,10.00
2023-05-08T05:06:33.737Z,8.70
2023-05-08T05:07:06.426Z,9.30
2023-05-08T05:07:39.095Z,8.30
2023-05-08T05:08:10.181Z,7.70
2023-05-08T05:08:42.872Z,8.10
2023-05-08T05:09:15.522Z,7.80
2023-05-08T05:09:48.194Z,8.70
2023-05-08T05:10:20.902Z,9.50
2023-05-08T05:10:53.566Z,7.00
2023-05-08T05:11:26.241Z,7.70
2023-05-08T05:11:58.910Z,9.30
2023-05-08T05:12:31.569Z,8.20
2023-05-08T05:13:04.270Z,8.90
2023-05-08T05:13:36.922Z,7.50
2023-05-08T05:14:09.631Z,8.00
2023-05-08T05:14:42.286Z,8.90
2023-05-08T05:15:15.064Z,7.70
2023-05-08T05:15:47.913Z,8.10
2023-05-08T05:16:20.679Z,8.70
2023-05-08T05:16:53.356Z,8.00
2023-05-08T05:17:26.061Z,8.10
2023-05-08T05:17:58.802Z,7.20
2023-05-08T05:18:31.566Z,8.90
2023-05-08T05:19:04.223Z,9.20
2023-05-08T05:19:36.922Z,8.70
2023-05-08T05:20:09.556Z,10.10
2023-05-08T05:20:42.256Z,7.30
2023-05-08T05:21:14.912Z,6.50
2023-05-08T05:21:47.580Z,7.00
2023-05-08T05:22:20.255Z,7.20
2023-05-08T05:22:52.932Z,7.20
2023-05-08T05:23:25.595Z,7.30
2023-05-08T05:23:58.285Z,7.60
2023-05-08T05:24:31.003Z,7.70
2023-05-08T05:25:03.628Z,7.30
2023-05-08T05:25:36.329Z,8.10
2023-05-08T05:26:09.027Z,7.20
2023-05-08T05:26:41.695Z,7.90
2023-05-08T05:27:14.357Z,7.60
2023-05-08T05:27:47.054Z,6.70
2023-05-08T05:28:19.749Z,7.20
2023-05-08T05:28:52.379Z,6.50
2023-05-08T05:29:25.059Z,7.10
2023-05-08T05:29:57.716Z,8.70
2023-05-08T05:30:30.413Z,7.80
2023-05-08T05:31:03.129Z,7.20
2023-05-08T05:31:35.823Z,7.70
2023-05-08T05:32:08.479Z,7.10
2023-05-08T05:32:41.183Z,7.10
2023-05-08T05:33:13.852Z,8.10
2023-05-08T05:33:46.534Z,6.90
2023-05-08T05:34:19.209Z,7.00
2023-05-08T05:34:51.898Z,7.10
2023-05-08T05:35:25.599Z,7.50
2023-05-08T05:35:52.047Z,8.60
2023-05-08T05:36:24.689Z,8.20
2023-05-08T05:36:57.364Z,6.50
2023-05-08T05:37:30.049Z,7.60
2023-05-08T05:38:02.719Z,7.60
2023-05-08T05:38:35.388Z,8.70
2023-05-08T05:39:08.057Z,7.00
2023-05-08T05:39:40.722Z,7.30
2023-05-08T05:40:13.409Z,7.60
2023-05-08T05:40:46.101Z,8.40
2023-05-08T05:41:18.743Z,6.20
2023-05-08T05:41:51.414Z,6.90
2023-05-08T05:42:24.339Z,9.10
2023-05-08T05:42:57.017Z,7.40
2023-05-08T05:43:29.699Z,9.00
2023-05-08T05:44:02.374Z,10.20
2023-05-08T05:44:35.026Z,7.90
2023-05-08T05:45:07.681Z,7.20
2023-05-08T05:45:40.350Z,6.90
2023-05-08T05:46:13.011Z,7.10
2023-05-08T05:46:45.732Z,7.60
2023-05-08T05:47:18.588Z,7.60
2023-05-08T05:47:51.360Z,7.30
2023-05-08T05:48:24.012Z,7.20
2023-05-08T05:48:56.682Z,8.10
2023-05-08T05:49:29.344Z,6.40
2023-05-08T05:50:02.084Z,7.40
2023-05-08T05:50:34.743Z,8.30
2023-05-08T05:51:07.421Z,7.30
2023-05-08T05:51:40.112Z,7.20
2023-05-08T05:52:12.778Z,8.00
2023-05-08T05:52:45.443Z,7.00
2023-05-08T05:53:18.121Z,6.40
2023-05-08T05:53:50.775Z,7.20
2023-05-08T05:54:23.449Z,6.60
2023-05-08T05:54:56.141Z,6.90
2023-05-08T05:55:28.786Z,6.90
2023-05-08T05:56:01.460Z,7.20
2023-05-08T05:56:34.125Z,7.60
2023-05-08T05:57:06.818Z,8.60
2023-05-08T05:57:39.467Z,8.40
2023-05-08T05:58:12.144Z,7.10
2023-05-08T05:58:44.855Z,6.70
2023-05-08T05:59:17.622Z,6.80
2023-05-08T05:59:50.283Z,8.50
2023-05-08T06:00:22.949Z,7.40
2023-05-08T06:00:55.656Z,6.60
2023-05-08T06:01:28.324Z,6.10
2023-05-08T06:02:01.055Z,6.60
2023-05-08T06:02:33.845Z,7.10
2023-05-08T06:03:06.641Z,5.40
2023-05-08T06:03:39.368Z,5.60
2023-05-08T06:04:12.183Z,6.50
2023-05-08T06:04:44.846Z,6.50
2023-05-08T06:05:17.541Z,5.50
2023-05-08T06:05:50.222Z,4.30
2023-05-08T06:06:22.887Z,6.60
2023-05-08T06:06:55.556Z,7.60
2023-05-08T06:07:28.223Z,5.60
2023-05-08T06:08:00.895Z,5.70
2023-05-08T06:08:33.580Z,5.50
2023-05-08T06:09:06.237Z,5.60
2023-05-08T06:09:38.897Z,6.20
2023-05-08T06:10:11.593Z,6.60
2023-05-08T06:10:44.247Z,6.50
2023-05-08T06:11:16.945Z,6.10
2023-05-08T06:11:49.669Z,7.00
2023-05-08T06:12:22.315Z,5.20
2023-05-08T06:12:55.029Z,4.90
2023-05-08T06:13:27.718Z,5.10
2023-05-08T06:14:00.396Z,6.10
2023-05-08T06:14:33.091Z,5.90
2023-05-08T06:15:05.733Z,5.70
2023-05-08T06:15:38.416Z,5.40
2023-05-08T06:16:11.101Z,5.00
2023-05-08T06:16:43.818Z,5.80
2023-05-08T06:17:16.463Z,6.00
2023-05-08T06:17:49.231Z,5.60
2023-05-08T06:18:21.893Z,5.90
2023-05-08T06:18:54.576Z,5.30
2023-05-08T06:19:27.239Z,5.70
2023-05-08T06:19:59.908Z,7.40
2023-05-08T06:20:32.605Z,7.40
2023-05-08T06:21:05.340Z,6.20
2023-05-08T06:21:38.002Z,6.40
2023-05-08T06:22:10.697Z,5.50
2023-05-08T06:22:43.350Z,5.80
2023-05-08T06:23:16.022Z,6.50
2023-05-08T06:23:48.693Z,5.70
2023-05-08T06:24:21.358Z,6.70
2023-05-08T06:24:54.032Z,5.40
2023-05-08T06:25:26.687Z,4.90
2023-05-08T06:25:59.379Z,4.90
2023-05-08T06:26:32.071Z,6.30
2023-05-08T06:27:04.733Z,5.10
2023-05-08T06:27:37.415Z,7.50
2023-05-08T06:28:10.102Z,6.40
2023-05-08T06:28:42.792Z,5.30
2023-05-08T06:29:15.493Z,6.40
2023-05-08T06:29:48.162Z,6.20
2023-05-08T06:30:20.832Z,4.70
2023-05-08T06:30:53.519Z,4.60
2023-05-08T06:31:26.352Z,4.30
2023-05-08T06:31:59.084Z,5.70
2023-05-08T06:32:31.828Z,5.20
2023-05-08T06:33:04.543Z,4.80
2023-05-08T06:33:37.226Z,5.30
2023-05-08T06:34:09.916Z,7.00
2023-05-08T06:34:42.576Z,5.10
2023-05-08T06:35:15.298Z,5.00
2023-05-08T06:35:47.984Z,4.70
2023-05-08T06:36:20.686Z,5.00
2023-05-08T06:36:53.334Z,4.00
2023-05-08T06:37:26.006Z,5.30
2023-05-08T06:37:58.677Z,5.20
2023-05-08T06:38:31.340Z,6.00
2023-05-08T06:39:04.021Z,5.70
2023-05-08T06:39:36.682Z,4.00
2023-05-08T06:40:12.494Z,5.20
2023-05-08T06:40:39.085Z,4.20
2023-05-08T06:41:13.342Z,6.50
2023-05-08T06:41:40.703Z,4.40
2023-05-08T06:42:13.384Z,5.40
2023-05-08T06:42:46.035Z,5.00
2023-05-08T06:43:18.701Z,6.10
2023-05-08T06:43:51.361Z,4.40
2023-05-08T06:44:24.049Z,4.10
2023-05-08T06:44:56.701Z,4.30
2023-05-08T06:45:29.368Z,4.50
2023-05-08T06:46:02.075Z,5.00
2023-05-08T06:46:34.777Z,4.20
2023-05-08T06:47:07.613Z,4.30
2023-05-08T06:47:40.326Z,4.10
2023-05-08T06:48:13.036Z,5.40
2023-05-08T06:48:45.696Z,5.10
2023-05-08T06:49:18.403Z,3.80
2023-05-08T06:49:51.034Z,4.90
2023-05-08T06:50:23.698Z,4.10
2023-05-08T06:50:56.409Z,3.60
2023-05-08T06:51:29.062Z,3.90
2023-05-08T06:52:01.726Z,3.30
2023-05-08T06:52:34.406Z,3.40
2023-05-08T06:53:07.090Z,4.30
2023-05-08T06:53:39.733Z,2.90
2023-05-08T06:54:12.408Z,4.00
2023-05-08T06:54:45.080Z,4.90
2023-05-08T06:55:17.751Z,4.40
2023-05-08T06:55:50.423Z,4.10
2023-05-08T06:56:23.114Z,4.20
2023-05-08T06:56:55.767Z,3.40
2023-05-08T06:57:28.438Z,3.50
2023-05-08T06:58:01.118Z,3.50
2023-05-08T06:58:33.755Z,3.50
2023-05-08T06:59:08.865Z,4.20
2023-05-08T06:59:35.313Z,4.20
2023-05-08T07:00:08.029Z,3.60
2023-05-08T07:00:40.690Z,4.10
2023-05-08T07:01:13.385Z,3.80
2023-05-08T07:01:46.057Z,4.10
2023-05-08T07:02:18.784Z,5.10
2023-05-08T07:02:51.542Z,3.40
2023-05-08T07:03:24.208Z,4.30
2023-05-08T07:03:56.914Z,3.20
2023-05-08T07:04:32.031Z,4.00
2023-05-08T07:04:58.382Z,3.70
2023-05-08T07:05:31.058Z,4.50
2023-05-08T07:06:03.760Z,4.40
2023-05-08T07:06:36.419Z,4.40
2023-05-08T07:07:09.111Z,5.90
2023-05-08T07:07:41.790Z,5.00
2023-05-08T07:08:14.465Z,4.40
2023-05-08T07:08:47.133Z,3.70
2023-05-08T07:09:19.797Z,2.90
2023-05-08T07:09:52.462Z,3.10
2023-05-08T07:10:25.167Z,4.50
2023-05-08T07:10:57.827Z,3.50
2023-05-08T07:11:30.532Z,3.70
2023-05-08T07:12:03.180Z,3.30
2023-05-08T07:12:35.874Z,3.90
2023-05-08T07:13:08.577Z,4.90
2023-05-08T07:13:41.244Z,2.70